Time;durP1;ratioP1;P1;durP2;ratioP2;P2;SDS_P1;SDS_P2;PMS_P1;PMS_P2;Temp;Humidity;BMP_temperature;BMP_pressure;BME280_temperature;BME280_humidity;BME280_pressure;Samples;Min_cycle;Max_cycle;Signal;HPM_P1;HPM_P2
2022/02/03 00:00:21;;;;;;;3.73;1.53;;;9.20;99.90;;;;;;4996035;28;21079;-74
2022/02/03 00:05:48;;;;;;;0.73;0.70;;;9.20;99.90;;;;;;5013944;28;20434;-74
2022/02/03 00:08:34;;;;;;;4.47;2.90;;;9.20;99.90;;;;;;5013726;28;20537;-74
2022/02/03 00:27:10;;;;;;;2.40;2.30;;;9.20;99.90;;;;;;5013261;28;20411;-74
2022/02/03 00:30:03;;;;;;;1.00;1.00;;;9.20;99.90;;;;;;5013314;28;20927;-74
2022/02/03 00:51:08;;;;;;;2.67;2.10;;;9.30;99.90;;;;;;5013500;28;20440;-74
2022/02/03 00:53:35;;;;;;;0.70;0.50;;;9.30;99.90;;;;;;5013303;28;20419;-74
2022/02/03 00:56:13;;;;;;;3.90;1.53;;;9.30;99.90;;;;;;5012605;28;20837;-74
2022/02/03 00:58:50;;;;;;;0.70;0.60;;;9.30;99.90;;;;;;5013187;28;20426;-74
2022/02/03 01:01:19;;;;;;;5.37;1.27;;;9.20;99.90;;;;;;5013213;28;20968;-74
2022/02/03 01:03:50;;;;;;;0.70;0.50;;;9.30;99.90;;;;;;5011806;28;20431;-74
2022/02/03 01:06:17;;;;;;;10.60;1.97;;;9.20;99.90;;;;;;5012653;28;20839;-73
2022/02/03 01:08:45;;;;;;;2.50;1.37;;;9.20;99.90;;;;;;5012695;28;20438;-74
2022/02/03 01:11:18;;;;;;;0.97;0.90;;;9.20;99.90;;;;;;5012534;28;21047;-74
2022/02/03 01:19:32;;;;;;;2.33;0.80;;;9.20;99.90;;;;;;5012580;28;20462;-73
2022/02/03 01:46:00;;;;;;;0.80;0.70;;;9.10;99.90;;;;;;5012057;28;20512;-74
2022/02/03 01:48:40;;;;;;;1.63;0.83;;;9.10;99.90;;;;;;5012356;28;20422;-74
2022/02/03 01:53:57;;;;;;;0.70;0.60;;;9.10;99.90;;;;;;5012569;28;20446;-74
2022/02/03 01:56:56;;;;;;;0.70;0.60;;;9.20;99.90;;;;;;5011817;28;20428;-73
2022/02/03 01:59:24;;;;;;;5.33;2.10;;;9.10;99.90;;;;;;5011712;28;20804;-73
2022/02/03 02:01:57;;;;;;;0.87;0.87;;;9.10;99.90;;;;;;5012060;28;20983;-74
2022/02/03 02:04:56;;;;;;;0.70;0.70;;;9.20;99.90;;;;;;4993418;28;20435;-73
2022/02/03 02:07:36;;;;;;;1.00;0.73;;;9.20;99.90;;;;;;5010813;28;20430;-74
2022/02/03 02:13:35;;;;;;;0.70;0.50;;;9.20;99.90;;;;;;5011348;28;20951;-74
2022/02/03 02:16:26;;;;;;;0.80;0.70;;;9.10;99.90;;;;;;5011667;28;20423;-74
2022/02/03 02:19:12;;;;;;;1.73;0.90;;;9.10;99.90;;;;;;5011994;28;20458;-74
2022/02/03 02:39:23;;;;;;;0.80;0.73;;;9.10;99.90;;;;;;5015955;28;20454;-72
2022/02/03 02:45:03;;;;;;;0.70;0.50;;;9.10;99.90;;;;;;5015560;28;20445;-72
2022/02/03 02:47:48;;;;;;;0.90;0.63;;;9.10;99.90;;;;;;5015141;28;20832;-72
2022/02/03 02:50:19;;;;;;;2.40;1.30;;;9.00;99.90;;;;;;5015158;28;20454;-73
2022/02/03 02:53:25;;;;;;;0.70;0.50;;;9.10;99.90;;;;;;4997841;28;20829;-73
2022/02/03 02:56:16;;;;;;;1.63;0.77;;;9.10;99.90;;;;;;5014854;28;20494;-73
2022/02/03 03:33:22;;;;;;;1.53;1.37;;;9.00;99.90;;;;;;5014839;28;20431;-73
2022/02/03 03:38:19;;;;;;;4.10;3.30;;;9.00;99.90;;;;;;5013987;28;20479;-73
2022/02/03 03:40:49;;;;;;;0.80;0.60;;;8.90;99.90;;;;;;4996845;28;20548;-73
2022/02/03 03:43:32;;;;;;;0.80;0.70;;;8.90;99.90;;;;;;5014794;28;20456;-73
2022/02/03 03:46:10;;;;;;;0.70;0.70;;;8.90;99.90;;;;;;5014052;28;20450;-73
2022/02/03 03:48:42;;;;;;;1.10;1.10;;;8.90;99.90;;;;;;5014355;28;20469;-73
2022/02/03 03:51:11;;;;;;;1.07;0.67;;;8.90;99.90;;;;;;5014264;28;20439;-73
2022/02/03 03:53:49;;;;;;;1.00;1.00;;;8.90;99.90;;;;;;5014072;28;20928;-72
2022/02/03 03:56:36;;;;;;;0.70;0.70;;;8.90;99.90;;;;;;5013944;28;20930;-73
2022/02/03 03:59:49;;;;;;;0.80;0.73;;;8.90;99.90;;;;;;4996399;28;20521;-72
2022/02/03 04:29:57;;;;;;;0.70;0.50;;;8.80;99.90;;;;;;4994355;28;20423;-73
2022/02/03 04:57:55;;;;;;;0.70;0.60;;;8.70;99.90;;;;;;5012518;28;20841;-73
2022/02/03 05:03:44;;;;;;;0.70;0.50;;;8.70;99.90;;;;;;5012953;28;20487;-73
2022/02/03 05:07:24;;;;;;;0.70;0.50;;;8.70;99.90;;;;;;5012621;28;20450;-73
2022/02/03 05:10:42;;;;;;;0.70;0.50;;;8.70;99.90;;;;;;4999158;28;20474;-73
2022/02/03 05:13:19;;;;;;;0.70;0.50;;;8.70;99.90;;;;;;4979245;28;20447;-73
2022/02/03 05:16:20;;;;;;;0.70;0.67;;;8.70;99.90;;;;;;5012385;28;20454;-73
2022/02/03 05:25:38;;;;;;;1.00;0.70;;;8.70;99.90;;;;;;4983790;28;20414;-73
2022/02/03 05:44:47;;;;;;;2.33;2.20;;;8.60;99.90;;;;;;4934322;29;20478;-73
2022/02/03 05:54:39;;;;;;;1.27;0.67;;;8.70;99.90;;;;;;5012308;28;20434;-73
2022/02/03 06:06:01;;;;;;;0.70;0.50;;;8.80;99.90;;;;;;5012210;28;20454;-73
2022/02/03 06:08:51;;;;;;;1.07;0.67;;;8.70;99.90;;;;;;5011094;28;20544;-74
2022/02/03 06:21:39;;;;;;;1.00;0.70;;;8.70;99.90;;;;;;5012038;28;20478;-73
2022/02/03 06:24:16;;;;;;;0.70;0.50;;;8.70;99.90;;;;;;4993984;28;20426;-73
2022/02/03 06:29:30;;;;;;;0.90;0.67;;;8.80;99.90;;;;;;5012093;28;20836;-75
2022/02/03 06:31:56;;;;;;;2.00;1.90;;;8.70;99.90;;;;;;5012958;28;20465;-74
2022/02/03 06:34:23;;;;;;;2.87;2.73;;;8.80;99.90;;;;;;5012290;28;20427;-74
2022/02/03 06:36:50;;;;;;;0.90;0.70;;;8.80;99.90;;;;;;5011472;28;20172;-74
2022/02/03 06:39:22;;;;;;;2.20;1.07;;;8.80;99.90;;;;;;5012262;28;20450;-74
2022/02/03 06:41:52;;;;;;;0.70;0.50;;;8.80;99.90;;;;;;4995530;28;20419;-74
2022/02/03 06:44:20;;;;;;;0.87;0.87;;;8.70;99.90;;;;;;5011874;28;20916;-74
2022/02/03 06:46:49;;;;;;;1.20;0.80;;;8.70;99.90;;;;;;5012188;28;20437;-74
2022/02/03 06:49:29;;;;;;;0.70;0.60;;;8.70;99.90;;;;;;5012368;28;20478;-74
2022/02/03 06:52:03;;;;;;;0.70;0.50;;;8.70;99.90;;;;;;4994924;28;20477;-74
2022/02/03 06:54:38;;;;;;;0.70;0.50;;;8.80;99.90;;;;;;5012251;28;20423;-74
2022/02/03 06:57:09;;;;;;;3.80;0.80;;;8.80;99.90;;;;;;5011847;28;20506;-74
2022/02/03 06:59:48;;;;;;;0.80;0.80;;;8.80;99.90;;;;;;5011811;28;20904;-74
2022/02/03 07:02:13;;;;;;;0.70;0.50;;;8.70;99.90;;;;;;5012197;28;20771;-74
2022/02/03 07:04:44;;;;;;;1.30;1.07;;;8.80;99.90;;;;;;5013752;28;20422;-74
2022/02/03 07:07:09;;;;;;;1.10;1.00;;;8.70;99.90;;;;;;5013421;28;20175;-74
2022/02/03 07:09:35;;;;;;;0.70;0.50;;;8.80;99.90;;;;;;5013797;28;20443;-74
2022/02/03 07:12:03;;;;;;;1.03;1.03;;;8.80;99.90;;;;;;5014485;28;20183;-74
2022/02/03 07:14:31;;;;;;;1.93;1.17;;;8.80;99.90;;;;;;5015668;28;20744;-73
2022/02/03 07:16:59;;;;;;;1.40;1.27;;;8.80;99.90;;;;;;5014474;28;20438;-73
2022/02/03 07:19:25;;;;;;;0.70;0.50;;;8.80;99.90;;;;;;5014653;28;20461;-73
2022/02/03 07:21:50;;;;;;;0.80;0.63;;;8.80;99.90;;;;;;5015077;28;20403;-74
2022/02/03 07:24:17;;;;;;;0.70;0.60;;;8.80;99.90;;;;;;5014925;28;20172;-73
2022/02/03 07:26:42;;;;;;;0.70;0.50;;;8.80;99.90;;;;;;5014180;28;20199;-74
2022/02/03 07:29:08;;;;;;;0.70;0.50;;;8.80;99.90;;;;;;5014608;28;20435;-73
2022/02/03 07:31:33;;;;;;;0.70;0.47;;;8.80;99.90;;;;;;5014222;28;20215;-73
2022/02/03 07:34:05;;;;;;;0.70;0.50;;;8.80;99.90;;;;;;5014792;28;20171;-73
2022/02/03 07:36:31;;;;;;;1.20;1.10;;;8.80;99.90;;;;;;5013963;28;20187;-73
2022/02/03 07:38:58;;;;;;;0.70;0.50;;;8.90;99.90;;;;;;5014314;28;20439;-73
2022/02/03 07:41:23;;;;;;;0.87;0.87;;;8.80;99.90;;;;;;4996315;28;20204;-73
2022/02/03 07:43:49;;;;;;;0.70;0.57;;;8.90;99.90;;;;;;5014267;28;21080;-73
2022/02/03 07:46:14;;;;;;;1.33;1.27;;;8.90;99.90;;;;;;5013763;28;20251;-73
2022/02/03 07:48:40;;;;;;;1.80;1.70;;;8.90;99.90;;;;;;4996768;28;20188;-74
2022/02/03 07:51:05;;;;;;;0.70;0.50;;;8.90;99.90;;;;;;5015585;28;20176;-74
2022/02/03 07:53:31;;;;;;;0.80;0.80;;;8.80;99.90;;;;;;5015137;28;20199;-74
2022/02/03 07:55:56;;;;;;;0.70;0.50;;;8.80;99.90;;;;;;5014812;28;20672;-74
2022/02/03 07:58:22;;;;;;;0.70;0.60;;;8.80;99.90;;;;;;5014268;28;20196;-74
2022/02/03 08:00:47;;;;;;;0.87;0.53;;;8.80;99.90;;;;;;5014410;28;20192;-73
2022/02/03 08:03:14;;;;;;;0.70;0.50;;;8.80;99.90;;;;;;5013991;28;20219;-73
2022/02/03 08:05:44;;;;;;;1.07;0.97;;;8.80;99.90;;;;;;5014115;28;20684;-73
2022/02/03 08:08:19;;;;;;;0.70;0.50;;;8.80;99.90;;;;;;5013605;28;20924;-73
2022/02/03 08:10:51;;;;;;;0.70;0.50;;;8.80;99.90;;;;;;5012151;28;20437;-73
2022/02/03 08:16:11;;;;;;;0.70;0.50;;;8.90;99.90;;;;;;5006024;28;20916;-73
2022/02/03 08:18:39;;;;;;;0.60;0.50;;;8.90;99.90;;;;;;4995798;28;20447;-73
2022/02/03 08:21:07;;;;;;;0.70;0.60;;;8.90;99.90;;;;;;5013744;28;20879;-74
2022/02/03 08:26:07;;;;;;;0.90;0.60;;;8.90;99.90;;;;;;5016001;28;20431;-75
2022/02/03 08:28:53;;;;;;;0.70;0.50;;;9.00;99.90;;;;;;5015729;28;20199;-74
2022/02/03 08:31:38;;;;;;;0.70;0.53;;;9.00;99.90;;;;;;5016428;28;20418;-74
2022/02/03 08:34:04;;;;;;;1.37;1.27;;;9.00;99.90;;;;;;5015113;28;20419;-74
2022/02/03 08:36:34;;;;;;;1.20;1.10;;;9.10;99.90;;;;;;5013701;28;20426;-74
2022/02/03 08:39:05;;;;;;;1.60;1.50;;;9.20;99.90;;;;;;5013529;28;20246;-74
2022/02/03 08:41:30;;;;;;;0.67;0.50;;;9.20;99.90;;;;;;5015599;28;20426;-75
2022/02/03 08:43:56;;;;;;;2.20;1.20;;;9.10;99.90;;;;;;5016067;28;20427;-74
2022/02/03 08:46:25;;;;;;;1.10;1.10;;;9.10;99.90;;;;;;5015980;28;20645;-74
2022/02/03 08:48:51;;;;;;;0.70;0.50;;;9.00;99.90;;;;;;5016831;28;20189;-74
2022/02/03 08:51:16;;;;;;;0.70;0.50;;;9.00;99.90;;;;;;5016523;28;20427;-74
2022/02/03 08:53:50;;;;;;;0.70;0.50;;;9.00;99.90;;;;;;5016576;28;20458;-74
2022/02/03 08:56:38;;;;;;;2.80;0.90;;;9.00;99.90;;;;;;5015920;28;20207;-74
2022/02/03 08:59:29;;;;;;;0.70;0.50;;;9.00;99.90;;;;;;5016531;28;20438;-74
2022/02/03 09:35:17;;;;;;;0.70;0.53;;;9.70;99.90;;;;;;5014667;28;20959;-75
2022/02/03 09:57:33;;;;;;;0.70;0.50;;;9.90;99.90;;;;;;5015548;28;20427;-74
2022/02/03 09:59:36;;;;;;;0.70;0.50;;;9.90;99.90;;;;;;5017530;28;20431;-74
2022/02/03 10:02:11;;;;;;;0.70;0.60;;;9.70;99.90;;;;;;5014801;28;20506;-74
2022/02/03 10:05:12;;;;;;;1.00;0.90;;;9.60;99.90;;;;;;5013978;28;20430;-74
2022/02/03 10:07:39;;;;;;;1.07;0.60;;;9.60;99.90;;;;;;5015100;28;20423;-74
2022/02/03 10:10:11;;;;;;;1.60;1.50;;;9.60;99.90;;;;;;5014493;28;20443;-74
2022/02/03 10:12:42;;;;;;;0.97;0.87;;;9.50;99.90;;;;;;5013634;28;20429;-74
2022/02/03 10:15:10;;;;;;;0.70;0.50;;;9.40;99.90;;;;;;5003185;28;20427;-74
2022/02/03 10:17:41;;;;;;;0.70;0.50;;;9.30;99.90;;;;;;5014657;28;20403;-74
2022/02/03 10:20:11;;;;;;;3.27;1.20;;;9.20;99.90;;;;;;5012932;28;20539;-74
2022/02/03 10:22:45;;;;;;;0.80;0.70;;;9.10;99.90;;;;;;5014925;28;20420;-74
2022/02/03 10:25:14;;;;;;;0.70;0.40;;;9.10;99.90;;;;;;4996770;28;20422;-74
2022/02/03 10:27:42;;;;;;;1.27;1.17;;;9.00;99.90;;;;;;5014426;28;20424;-74
2022/02/03 10:30:26;;;;;;;0.70;0.50;;;9.00;99.90;;;;;;5014308;28;20486;-74
2022/02/03 10:32:53;;;;;;;0.70;0.40;;;9.00;99.90;;;;;;5014883;28;20762;-74
2022/02/03 10:35:39;;;;;;;0.93;0.73;;;9.00;99.90;;;;;;5014664;28;20454;-74
2022/02/03 10:57:29;;;;;;;1.23;1.13;;;9.10;99.90;;;;;;5017245;28;20423;-74
2022/02/03 11:02:41;;;;;;;0.70;0.50;;;8.90;99.90;;;;;;5016302;28;21006;-73
2022/02/03 11:08:11;;;;;;;0.90;0.60;;;9.00;99.90;;;;;;5019579;28;20995;-73
2022/02/03 11:10:43;;;;;;;0.80;0.50;;;9.10;99.90;;;;;;5011755;28;20426;-73
2022/02/03 11:13:13;;;;;;;1.17;1.03;;;9.00;99.90;;;;;;5014612;28;20411;-73
2022/02/03 11:15:41;;;;;;;0.70;0.57;;;9.00;99.90;;;;;;5015306;28;20772;-73
2022/02/03 11:18:07;;;;;;;0.70;0.50;;;9.00;99.90;;;;;;4997180;28;20466;-73
2022/02/03 11:20:38;;;;;;;0.70;0.50;;;9.00;99.90;;;;;;5012483;28;20458;-73
2022/02/03 11:23:32;;;;;;;0.80;0.80;;;9.10;99.90;;;;;;5011750;28;20819;-73
2022/02/03 11:59:08;;;;;;;2.33;2.20;;;8.80;99.90;;;;;;5008849;28;20446;-73
2022/02/03 12:01:55;;;;;;;0.70;0.50;;;8.70;99.90;;;;;;5017817;28;20454;-73
2022/02/03 12:10:47;;;;;;;0.70;0.50;;;8.80;99.90;;;;;;4969518;28;20555;-73
2022/02/03 12:21:43;;;;;;;0.80;0.80;;;8.90;99.90;;;;;;5019361;28;20549;-73
2022/02/03 12:24:33;;;;;;;0.70;0.60;;;8.90;99.90;;;;;;5001080;28;20936;-74
2022/02/03 12:27:08;;;;;;;0.70;0.50;;;8.90;99.90;;;;;;5012341;28;20419;-74
2022/02/03 12:29:53;;;;;;;0.70;0.50;;;8.80;99.90;;;;;;5010328;28;20465;-73
2022/02/03 12:43:03;;;;;;;0.70;0.50;;;8.50;99.90;;;;;;5012678;28;20445;-73
2022/02/03 12:45:31;;;;;;;0.80;0.80;;;8.40;99.90;;;;;;5013481;28;20501;-73
2022/02/03 12:47:59;;;;;;;0.70;0.60;;;8.20;99.90;;;;;;5012494;28;20419;-73
2022/02/03 12:50:36;;;;;;;0.70;0.47;;;8.20;99.90;;;;;;5013325;28;20427;-74
2022/02/03 12:53:04;;;;;;;0.70;0.40;;;8.30;99.90;;;;;;5013422;28;20426;-73
2022/02/03 12:55:38;;;;;;;0.70;0.50;;;8.30;99.90;;;;;;4995400;28;20803;-73
2022/02/03 12:58:11;;;;;;;1.00;0.90;;;8.20;99.90;;;;;;5012302;28;20434;-73
2022/02/03 13:00:45;;;;;;;0.70;0.50;;;8.20;99.90;;;;;;5013046;28;20498;-74
2022/02/03 13:03:14;;;;;;;1.63;0.90;;;8.10;99.90;;;;;;5013138;28;20429;-73
2022/02/03 13:05:49;;;;;;;0.70;0.50;;;8.10;99.90;;;;;;5012852;28;20804;-73
2022/02/03 13:08:15;;;;;;;1.10;1.00;;;8.10;99.90;;;;;;5011314;28;20496;-73
2022/02/03 13:10:41;;;;;;;0.70;0.40;;;8.10;99.90;;;;;;5011223;28;20435;-73
2022/02/03 13:13:18;;;;;;;1.20;1.10;;;8.00;99.90;;;;;;5011817;28;20176;-73
2022/02/03 13:15:44;;;;;;;0.70;0.50;;;8.00;99.90;;;;;;5011456;28;20430;-74
2022/02/03 13:18:16;;;;;;;0.93;0.93;;;7.90;99.90;;;;;;5012616;28;20415;-73
2022/02/03 13:20:49;;;;;;;0.70;0.40;;;8.00;99.90;;;;;;5012781;28;21029;-74
2022/02/03 13:23:19;;;;;;;0.70;0.60;;;8.10;99.90;;;;;;5011927;28;20423;-74
2022/02/03 13:26:15;;;;;;;1.37;1.27;;;8.00;99.90;;;;;;5012723;28;20407;-74
2022/02/03 13:29:04;;;;;;;0.70;0.60;;;8.10;99.90;;;;;;5012209;28;20465;-73
2022/02/03 13:31:57;;;;;;;0.70;0.40;;;8.10;99.90;;;;;;5012073;28;20478;-73
2022/02/03 13:34:35;;;;;;;0.77;0.73;;;8.00;99.90;;;;;;5011762;28;20465;-73
2022/02/03 13:37:25;;;;;;;0.70;0.47;;;8.00;99.90;;;;;;5012116;28;20441;-73
2022/02/03 13:40:15;;;;;;;1.27;0.93;;;7.90;99.90;;;;;;5012245;28;20866;-73
2022/02/03 13:42:52;;;;;;;0.70;0.50;;;7.80;99.90;;;;;;4994304;28;20416;-74
2022/02/03 13:45:21;;;;;;;1.27;1.17;;;7.80;99.90;;;;;;4991796;28;20525;-73
2022/02/03 13:47:49;;;;;;;0.70;0.50;;;7.80;99.90;;;;;;5010309;28;20419;-73
2022/02/03 13:50:23;;;;;;;1.03;0.93;;;7.80;99.90;;;;;;4993967;28;21160;-73
2022/02/03 13:52:59;;;;;;;0.70;0.50;;;7.80;99.90;;;;;;5011874;28;20429;-73
2022/02/03 14:15:40;;;;;;;0.70;0.47;;;7.80;99.90;;;;;;5008401;28;20439;-72
2022/02/03 14:18:17;;;;;;;1.00;0.90;;;7.90;99.90;;;;;;5011861;28;20403;-73
2022/02/03 14:21:45;;;;;;;0.70;0.60;;;7.90;99.90;;;;;;5011766;28;20415;-73
2022/02/03 14:29:15;;;;;;;0.70;0.60;;;7.90;99.90;;;;;;5015658;28;20450;-73
2022/02/03 14:31:42;;;;;;;0.80;0.73;;;7.90;99.90;;;;;;5015504;28;20852;-73
2022/02/03 14:34:15;;;;;;;0.70;0.60;;;7.90;99.90;;;;;;5015496;28;20831;-73
2022/02/03 14:36:45;;;;;;;0.70;0.47;;;8.00;99.90;;;;;;5015740;28;20419;-73
2022/02/03 14:41:42;;;;;;;0.70;0.50;;;7.90;99.90;;;;;;5015528;28;20427;-73
2022/02/03 14:44:08;;;;;;;0.80;0.70;;;7.90;99.90;;;;;;5015401;28;20268;-73
2022/02/03 14:46:34;;;;;;;0.70;0.50;;;7.90;99.90;;;;;;5014559;28;20939;-73
2022/02/03 14:48:59;;;;;;;0.80;0.60;;;7.90;99.90;;;;;;5015108;28;20203;-73
2022/02/03 14:51:30;;;;;;;0.70;0.40;;;7.90;99.90;;;;;;5014860;28;20291;-73
2022/02/03 14:54:19;;;;;;;0.70;0.50;;;7.80;99.90;;;;;;5015240;28;20172;-73
2022/02/03 14:59:25;;;;;;;0.70;0.50;;;7.70;99.90;;;;;;4995985;28;20500;-73
2022/02/03 15:01:50;;;;;;;0.80;0.70;;;7.80;99.90;;;;;;5014943;28;20513;-73
2022/02/03 15:04:25;;;;;;;0.70;0.50;;;7.80;99.90;;;;;;5014899;28;20181;-73
2022/02/03 15:06:57;;;;;;;0.70;0.50;;;7.80;99.90;;;;;;5015292;28;20206;-73
2022/02/03 15:12:03;;;;;;;0.70;0.40;;;7.80;99.90;;;;;;5014471;28;20407;-73
2022/02/03 15:14:30;;;;;;;0.70;0.60;;;7.70;99.90;;;;;;5015023;28;20506;-73
2022/02/03 15:16:57;;;;;;;0.70;0.50;;;7.80;99.90;;;;;;5013083;28;20431;-75
2022/02/03 15:19:22;;;;;;;0.70;0.50;;;7.80;99.90;;;;;;5015082;28;20430;-73
2022/02/03 15:21:48;;;;;;;2.87;1.53;;;7.80;99.90;;;;;;5014690;28;20466;-73
2022/02/03 15:24:14;;;;;;;0.70;0.50;;;7.80;99.90;;;;;;4996996;28;20251;-73
2022/02/03 15:26:40;;;;;;;0.70;0.50;;;7.80;99.90;;;;;;5015115;28;20507;-73
2022/02/03 15:29:06;;;;;;;1.23;1.10;;;7.80;99.90;;;;;;5014147;28;20590;-74
2022/02/03 15:31:33;;;;;;;0.70;0.60;;;7.80;99.90;;;;;;5014469;28;20541;-73
2022/02/03 15:34:10;;;;;;;7.30;1.13;;;7.80;99.90;;;;;;5013395;28;20796;-73
2022/02/03 15:36:38;;;;;;;0.70;0.50;;;7.80;99.90;;;;;;5014778;28;20811;-73
2022/02/03 15:39:10;;;;;;;0.93;0.93;;;7.80;99.90;;;;;;5012568;28;20503;-73
2022/02/03 15:41:36;;;;;;;0.70;0.47;;;7.70;99.90;;;;;;5014571;28;20510;-73
2022/02/03 15:44:02;;;;;;;0.70;0.43;;;7.60;99.90;;;;;;5014187;28;20423;-73
2022/02/03 15:46:30;;;;;;;0.80;0.80;;;7.70;99.90;;;;;;5014559;28;20840;-73
2022/02/03 15:49:17;;;;;;;0.80;0.70;;;7.70;99.90;;;;;;5012856;28;20443;-73
2022/02/03 15:57:40;;;;;;;0.90;0.80;;;7.60;99.90;;;;;;5014052;28;20411;-73
2022/02/03 16:03:20;;;;;;;0.90;0.80;;;7.50;99.90;;;;;;4994433;28;20792;-73
2022/02/03 16:19:15;;;;;;;3.17;0.83;;;7.50;99.90;;;;;;5010371;28;20493;-73
2022/02/03 16:21:51;;;;;;;0.70;0.53;;;7.50;99.90;;;;;;5012595;28;20455;-73
2022/02/03 16:32:00;;;;;;;0.70;0.50;;;7.50;99.90;;;;;;5013829;28;20984;-73
2022/02/03 16:51:15;;;;;;;0.70;0.50;;;7.50;99.90;;;;;;5010450;28;20821;-73
2022/02/03 16:53:42;;;;;;;0.70;0.50;;;7.50;99.90;;;;;;4995599;28;20529;-73
2022/02/03 16:56:12;;;;;;;1.77;1.67;;;7.50;99.90;;;;;;5012774;28;20421;-75
2022/02/03 16:58:40;;;;;;;0.80;0.60;;;7.50;99.90;;;;;;5012892;28;20427;-73
2022/02/03 17:01:06;;;;;;;0.90;0.70;;;7.50;99.90;;;;;;5009424;28;20415;-73
2022/02/03 17:03:31;;;;;;;0.70;0.50;;;7.50;99.90;;;;;;5006922;28;20435;-73
2022/02/03 17:05:57;;;;;;;0.70;0.40;;;7.50;99.90;;;;;;5012119;28;20169;-73
2022/02/03 17:08:24;;;;;;;1.20;1.00;;;7.40;99.90;;;;;;5011316;28;20199;-73
2022/02/03 17:10:50;;;;;;;0.70;0.50;;;7.40;99.90;;;;;;5010962;28;20192;-73
2022/02/03 17:13:15;;;;;;;0.70;0.50;;;7.30;99.90;;;;;;5011828;28;20430;-73
2022/02/03 17:15:42;;;;;;;0.70;0.50;;;7.30;99.90;;;;;;5013039;28;20164;-73
2022/02/03 17:18:07;;;;;;;1.60;1.50;;;7.30;99.90;;;;;;5011204;28;20542;-73
2022/02/03 17:20:36;;;;;;;0.70;0.50;;;7.30;99.90;;;;;;5012340;28;20423;-73
2022/02/03 17:23:05;;;;;;;1.10;0.63;;;7.30;99.90;;;;;;5012571;28;20187;-73
2022/02/03 17:25:38;;;;;;;1.30;1.13;;;7.30;99.90;;;;;;5012806;28;20407;-73
2022/02/03 17:28:12;;;;;;;0.70;0.50;;;7.20;99.90;;;;;;5012241;28;20407;-74
2022/02/03 17:30:46;;;;;;;0.70;0.50;;;7.30;99.90;;;;;;5011959;28;20485;-73
2022/02/03 18:02:56;;;;;;;0.70;0.50;;;7.30;99.90;;;;;;5013225;28;20434;-73
2022/02/03 18:03:44;;;;;;;0.70;0.40;;;7.30;99.90;;;;;;5013853;28;21250;-74
2022/02/03 18:11:29;;;;;;;0.70;0.40;;;7.30;99.90;;;;;;5012138;28;20964;-73
2022/02/03 18:50:56;;;;;;;0.90;0.70;;;7.20;99.90;;;;;;5013628;28;20451;-74
2022/02/03 18:53:32;;;;;;;1.57;1.40;;;7.30;99.90;;;;;;4995704;28;20622;-74
2022/02/03 18:59:12;;;;;;;0.70;0.43;;;7.30;99.90;;;;;;5022434;28;20528;-74
2022/02/03 20:03:30;;;;;;;0.80;0.73;;;7.40;99.90;;;;;;5015274;28;20426;-75
2022/02/03 20:08:33;;;;;;;0.70;0.63;;;7.40;99.90;;;;;;5015394;28;20427;-75
2022/02/03 20:10:59;;;;;;;0.70;0.50;;;7.40;99.90;;;;;;5014591;28;20497;-73
2022/02/03 20:13:24;;;;;;;0.73;0.70;;;7.40;99.90;;;;;;5013583;28;20423;-74
2022/02/03 20:15:50;;;;;;;0.70;0.70;;;7.40;99.90;;;;;;5014133;28;20164;-74
2022/02/03 20:18:17;;;;;;;0.93;0.83;;;7.50;99.90;;;;;;5013395;28;20198;-75
2022/02/03 20:20:44;;;;;;;1.00;0.83;;;7.50;99.90;;;;;;5015710;28;20691;-75
2022/02/03 20:23:14;;;;;;;1.27;1.17;;;7.50;99.90;;;;;;5014440;28;20433;-75
2022/02/03 20:25:42;;;;;;;0.70;0.40;;;7.50;99.90;;;;;;5014976;28;20471;-75
2022/02/03 20:28:08;;;;;;;0.70;0.50;;;7.50;99.90;;;;;;5013250;28;20430;-75
2022/02/03 20:30:34;;;;;;;0.70;0.60;;;7.40;99.90;;;;;;5015095;28;20960;-76
2022/02/03 20:33:00;;;;;;;0.70;0.50;;;7.50;99.90;;;;;;5014769;28;20172;-75
2022/02/03 20:35:26;;;;;;;2.10;1.27;;;7.40;99.90;;;;;;5014962;28;20415;-75
2022/02/03 20:37:52;;;;;;;0.70;0.50;;;7.40;99.90;;;;;;5015132;28;20168;-75
2022/02/03 20:40:18;;;;;;;0.70;0.50;;;7.40;99.90;;;;;;4995722;28;20450;-74
2022/02/03 20:42:43;;;;;;;1.53;1.43;;;7.40;99.90;;;;;;5013178;28;20226;-74
2022/02/03 20:45:10;;;;;;;0.87;0.87;;;7.40;99.90;;;;;;5014525;28;20179;-75
2022/02/03 20:47:36;;;;;;;0.93;0.87;;;7.40;99.90;;;;;;4997938;28;20180;-74
2022/02/03 20:50:05;;;;;;;0.80;0.53;;;7.40;99.90;;;;;;5013480;28;21277;-74
2022/02/03 20:52:31;;;;;;;0.80;0.80;;;7.50;99.90;;;;;;5013149;28;20821;-74
2022/02/03 20:54:56;;;;;;;0.70;0.60;;;7.50;99.90;;;;;;5013657;28;20415;-74
2022/02/03 20:57:23;;;;;;;0.73;0.63;;;7.50;99.90;;;;;;5013778;28;20528;-75
2022/02/03 21:02:24;;;;;;;0.70;0.50;;;7.40;99.90;;;;;;5013023;28;20484;-74
2022/02/03 21:05:01;;;;;;;0.70;0.50;;;7.50;99.90;;;;;;5013999;28;20230;-75
2022/02/03 21:07:27;;;;;;;0.70;0.50;;;7.40;99.90;;;;;;4997751;28;20946;-75
2022/02/03 21:09:52;;;;;;;1.77;0.90;;;7.50;99.90;;;;;;4996429;28;22410;-75
2022/02/03 21:12:18;;;;;;;2.60;1.20;;;7.40;99.90;;;;;;5015541;28;20227;-74
2022/02/03 21:14:45;;;;;;;1.00;0.90;;;7.30;99.90;;;;;;5015263;28;20176;-75
2022/02/03 21:17:11;;;;;;;0.87;0.70;;;7.30;99.90;;;;;;5014608;28;20195;-76
2022/02/03 21:19:36;;;;;;;1.57;1.47;;;7.30;99.90;;;;;;5014026;28;20427;-75
2022/02/03 21:22:02;;;;;;;4.70;1.70;;;7.30;99.90;;;;;;5013009;28;20172;-74
2022/02/03 21:24:27;;;;;;;0.80;0.70;;;7.20;99.90;;;;;;5012466;28;20164;-74
2022/02/03 21:26:56;;;;;;;1.47;1.07;;;7.30;99.90;;;;;;5012888;28;20171;-73
2022/02/03 21:29:21;;;;;;;1.63;1.53;;;7.30;99.90;;;;;;5012414;28;20199;-74
2022/02/03 21:31:47;;;;;;;0.63;0.47;;;7.30;99.90;;;;;;5011764;28;20967;-74
2022/02/03 21:34:16;;;;;;;1.00;0.90;;;7.30;99.90;;;;;;5012795;28;20172;-74
2022/02/03 21:36:43;;;;;;;1.57;1.00;;;7.30;99.90;;;;;;5013163;28;20169;-75
2022/02/03 21:39:09;;;;;;;0.70;0.50;;;7.30;99.90;;;;;;5013021;28;20842;-74
2022/02/03 21:41:35;;;;;;;1.03;0.80;;;7.30;99.90;;;;;;5013591;28;20756;-74
2022/02/03 21:44:00;;;;;;;0.70;0.60;;;7.30;99.90;;;;;;5013712;28;20931;-74
2022/02/03 21:46:26;;;;;;;0.97;0.97;;;7.30;99.90;;;;;;5013858;28;20259;-74
2022/02/03 21:48:52;;;;;;;0.70;0.60;;;7.30;99.90;;;;;;4995893;28;20195;-73
2022/02/03 21:51:22;;;;;;;1.57;1.23;;;7.30;99.90;;;;;;5013173;28;20192;-74
2022/02/03 21:53:49;;;;;;;1.33;1.23;;;7.40;99.90;;;;;;5012358;28;20194;-74
2022/02/03 21:56:16;;;;;;;1.37;0.60;;;7.40;99.90;;;;;;5013666;28;20435;-74
2022/02/03 21:58:42;;;;;;;2.30;2.20;;;7.40;99.90;;;;;;5013190;28;20427;-74
2022/02/03 22:01:07;;;;;;;4.30;0.83;;;7.30;99.90;;;;;;5013330;28;20481;-73
2022/02/03 22:03:34;;;;;;;1.03;0.90;;;7.30;99.90;;;;;;5012725;28;20199;-74
2022/02/03 22:06:01;;;;;;;1.93;1.83;;;7.30;99.90;;;;;;5013109;28;20175;-74
2022/02/03 22:08:26;;;;;;;0.70;0.50;;;7.30;99.90;;;;;;5011670;28;20950;-74
2022/02/03 22:10:55;;;;;;;0.67;0.40;;;7.30;99.90;;;;;;4994683;28;20537;-74
2022/02/03 22:13:21;;;;;;;0.93;0.80;;;7.30;99.90;;;;;;5011987;28;20171;-74
2022/02/03 22:15:46;;;;;;;3.13;1.90;;;7.20;99.90;;;;;;5012915;28;20917;-75
2022/02/03 22:18:15;;;;;;;0.93;0.83;;;7.20;99.90;;;;;;5012927;28;20169;-75
2022/02/03 22:20:52;;;;;;;0.70;0.60;;;7.20;99.90;;;;;;5013150;28;20170;-75
2022/02/03 22:29:17;;;;;;;0.70;0.50;;;7.20;99.90;;;;;;5012328;28;20426;-74
2022/02/03 22:49:38;;;;;;;1.00;0.67;;;7.40;99.90;;;;;;5015877;28;20204;-75
2022/02/03 22:52:04;;;;;;;0.90;0.70;;;7.40;99.90;;;;;;5015900;28;20959;-75
2022/02/03 22:54:30;;;;;;;0.90;0.90;;;7.40;99.90;;;;;;5017146;28;20415;-75
2022/02/03 22:56:55;;;;;;;0.70;0.50;;;7.40;99.90;;;;;;5017493;28;20855;-75
2022/02/03 23:00:00;;;;;;;1.80;0.90;;;7.40;99.90;;;;;;5016824;28;20196;-75
2022/02/03 23:02:06;;;;;;;0.70;0.50;;;7.40;99.90;;;;;;5016780;28;20184;-75
2022/02/03 23:04:32;;;;;;;0.90;0.73;;;7.50;99.90;;;;;;5016320;28;20515;-75
2022/02/03 23:07:13;;;;;;;1.33;1.23;;;7.40;99.90;;;;;;5016934;28;20184;-75
2022/02/03 23:12:17;;;;;;;0.70;0.53;;;7.40;99.90;;;;;;5016138;28;20939;-75
2022/02/03 23:20:20;;;;;;;1.50;1.20;;;7.60;99.90;;;;;;5014664;28;20449;-74
2022/02/03 23:22:46;;;;;;;0.70;0.50;;;7.50;99.90;;;;;;5014741;28;20435;-74
2022/02/03 23:25:15;;;;;;;1.03;1.03;;;7.50;99.90;;;;;;5015137;28;20908;-74
2022/02/03 23:30:10;;;;;;;0.70;0.50;;;7.50;99.90;;;;;;5015453;28;20648;-74
2022/02/03 23:32:35;;;;;;;0.70;0.50;;;7.50;99.90;;;;;;5014882;28;20988;-73
2022/02/03 23:35:26;;;;;;;0.70;0.50;;;7.50;99.90;;;;;;5014856;28;20802;-74
2022/02/03 23:37:57;;;;;;;0.70;0.60;;;7.50;99.90;;;;;;5014174;28;20280;-73
2022/02/03 23:40:41;;;;;;;0.70;0.50;;;7.50;99.90;;;;;;4997419;28;20954;-74
2022/02/03 23:46:17;;;;;;;0.70;0.50;;;7.50;99.90;;;;;;5014816;28;20749;-74
2022/02/03 23:49:46;;;;;;;1.93;1.13;;;7.50;99.90;;;;;;5014367;28;20534;-74
